createdAt,value
2023-05-21T00:01:43.899Z,50.30
2023-05-21T00:04:12.106Z,50.40
2023-05-21T00:06:39.045Z,50.60
2023-05-21T00:09:06.853Z,50.80
2023-05-21T00:11:33.894Z,50.90
2023-05-21T00:14:00.838Z,51.10
2023-05-21T00:16:28.020Z,51.40
2023-05-21T00:18:55.303Z,51.70
2023-05-21T00:21:22.778Z,51.60
2023-05-21T00:23:50.381Z,51.70
2023-05-21T00:26:17.219Z,51.70
2023-05-21T00:28:44.851Z,51.50
2023-05-21T00:31:11.868Z,51.40
2023-05-21T00:33:38.760Z,51.50
2023-05-21T00:36:06.160Z,51.40
2023-05-21T00:38:33.202Z,51.70
2023-05-21T00:41:02.594Z,51.40
2023-05-21T00:43:29.511Z,51.10
2023-05-21T00:45:56.724Z,51.20
2023-05-21T00:48:24.077Z,51.40
2023-05-21T00:50:51.098Z,51.20
2023-05-21T00:53:19.696Z,51.50
2023-05-21T00:55:46.979Z,51.50
2023-05-21T00:58:14.396Z,51.20
2023-05-21T01:00:42.036Z,51.10
2023-05-21T01:03:09.353Z,51.10
2023-05-21T01:05:37.008Z,51.30
2023-05-21T01:08:04.593Z,51.40
2023-05-21T01:10:31.649Z,51.80
2023-05-21T01:12:59.657Z,51.70
2023-05-21T01:15:27.571Z,51.80
2023-05-21T01:17:55.854Z,51.70
2023-05-21T01:20:24.469Z,51.60
2023-05-21T01:22:55.344Z,51.80
2023-05-21T01:25:24.692Z,51.60
2023-05-21T01:27:52.354Z,51.60
2023-05-21T01:30:20.972Z,51.70
2023-05-21T01:33:00.619Z,51.70
2023-05-21T01:35:35.509Z,51.80
2023-05-21T01:38:15.447Z,51.70
2023-05-21T01:40:52.320Z,51.70
2023-05-21T01:43:20.705Z,51.70
2023-05-21T01:45:48.819Z,51.60
2023-05-21T01:48:17.565Z,51.90
2023-05-21T01:50:46.017Z,52.10
2023-05-21T01:53:13.199Z,52.10
2023-05-21T01:55:41.975Z,51.80
2023-05-21T01:58:10.129Z,52.00
2023-05-21T02:00:37.529Z,51.80
2023-05-21T02:03:04.607Z,51.90
2023-05-21T02:05:31.697Z,52.00
2023-05-21T02:08:00.038Z,52.10
2023-05-21T02:10:27.259Z,52.30
2023-05-21T02:12:54.415Z,52.50
2023-05-21T02:15:22.551Z,52.70
2023-05-21T02:17:51.429Z,52.50
2023-05-21T02:20:18.967Z,52.50
2023-05-21T02:22:47.904Z,52.30
2023-05-21T02:25:19.914Z,52.30
2023-05-21T02:27:47.701Z,52.20
2023-05-21T02:30:16.071Z,52.20
2023-05-21T02:32:43.986Z,52.50
2023-05-21T02:35:13.476Z,52.70
2023-05-21T02:37:40.971Z,52.70
2023-05-21T02:40:10.240Z,52.80
2023-05-21T02:42:39.787Z,52.90
2023-05-21T02:45:08.906Z,53.00
2023-05-21T02:47:36.319Z,53.20
2023-05-21T02:50:03.433Z,53.10
2023-05-21T02:52:31.366Z,53.10
2023-05-21T02:54:58.277Z,53.10
2023-05-21T02:57:25.302Z,53.00
2023-05-21T02:59:52.167Z,53.10
2023-05-21T03:02:19.179Z,53.00
2023-05-21T03:04:46.708Z,53.10
2023-05-21T03:07:14.638Z,53.20
2023-05-21T03:09:44.541Z,53.10
2023-05-21T03:12:11.736Z,53.20
2023-05-21T03:14:38.908Z,53.40
2023-05-21T03:17:06.306Z,53.60
2023-05-21T03:19:37.090Z,53.60
2023-05-21T03:22:05.174Z,54.00
2023-05-21T03:24:36.875Z,53.90
2023-05-21T03:27:06.741Z,54.10
2023-05-21T03:29:34.509Z,55.30
2023-05-21T03:32:03.016Z,54.40
2023-05-21T03:34:31.335Z,54.40
2023-05-21T03:36:59.023Z,54.60
2023-05-21T03:39:26.881Z,54.80
2023-05-21T03:41:55.814Z,54.60
2023-05-21T03:44:44.072Z,54.70
2023-05-21T03:47:31.300Z,55.00
2023-05-21T03:49:59.405Z,54.90
2023-05-21T03:52:27.255Z,55.30
2023-05-21T03:54:54.188Z,55.20
2023-05-21T03:57:21.175Z,55.30
2023-05-21T03:59:48.976Z,55.30
2023-05-21T04:02:16.157Z,55.50
2023-05-21T04:04:44.580Z,55.60
2023-05-21T04:07:14.772Z,55.80
2023-05-21T04:09:42.146Z,55.70
2023-05-21T04:12:09.075Z,56.10
2023-05-21T04:14:37.754Z,56.10
2023-05-21T04:17:05.415Z,56.10
2023-05-21T04:19:33.315Z,56.30
2023-05-21T04:22:01.074Z,56.30
2023-05-21T04:24:28.005Z,56.10
2023-05-21T04:27:02.403Z,56.20
2023-05-21T04:29:31.455Z,56.30
2023-05-21T04:31:58.424Z,56.30
2023-05-21T04:34:25.857Z,56.30
2023-05-21T04:36:52.729Z,56.60
2023-05-21T04:39:19.624Z,56.90
2023-05-21T04:41:46.834Z,56.60
2023-05-21T04:44:15.119Z,56.60
2023-05-21T04:46:46.131Z,56.80
2023-05-21T04:49:13.701Z,56.80
2023-05-21T04:51:41.578Z,56.90
2023-05-21T04:54:08.560Z,57.00
2023-05-21T04:56:35.722Z,57.10
2023-05-21T04:59:05.467Z,57.30
2023-05-21T05:01:35.437Z,57.20
2023-05-21T05:04:02.626Z,57.50
2023-05-21T05:06:31.192Z,57.60
2023-05-21T05:08:58.090Z,57.50
2023-05-21T05:11:26.394Z,57.60
2023-05-21T05:13:53.291Z,57.60
2023-05-21T05:16:25.178Z,57.70
2023-05-21T05:18:53.121Z,58.00
2023-05-21T05:21:22.733Z,58.20
2023-05-21T05:23:50.244Z,58.30
2023-05-21T05:26:17.963Z,58.50
2023-05-21T05:28:45.929Z,58.40
2023-05-21T05:31:13.061Z,58.30
2023-05-21T05:33:41.443Z,58.20
2023-05-21T05:36:08.556Z,58.20
2023-05-21T05:38:36.299Z,58.60
2023-05-21T05:41:03.572Z,58.60
2023-05-21T05:43:30.771Z,58.50
2023-05-21T05:45:58.903Z,58.20
2023-05-21T05:48:26.046Z,58.40
2023-05-21T05:50:57.101Z,58.60
2023-05-21T05:53:25.639Z,58.30
2023-05-21T05:55:53.068Z,58.30
2023-05-21T05:58:20.027Z,58.90
2023-05-21T06:01:05.161Z,59.20
2023-05-21T06:03:32.201Z,59.20
2023-05-21T06:06:05.748Z,59.30
2023-05-21T06:08:37.280Z,59.30
2023-05-21T06:11:04.998Z,59.10
2023-05-21T06:13:32.148Z,59.50
2023-05-21T06:15:59.220Z,59.60
2023-05-21T06:18:26.218Z,59.60
2023-05-21T06:20:53.796Z,59.40
2023-05-21T06:23:22.592Z,59.70
2023-05-21T06:25:49.956Z,59.50
2023-05-21T06:28:17.852Z,59.40
2023-05-21T06:30:44.831Z,58.90
2023-05-21T06:33:11.829Z,59.50
2023-05-21T06:35:40.027Z,59.60
2023-05-21T06:38:08.437Z,59.40
2023-05-21T06:40:35.512Z,59.10
2023-05-21T06:43:04.870Z,58.80
2023-05-21T06:45:50.816Z,58.60
2023-05-21T06:48:33.203Z,58.50
2023-05-21T06:51:00.054Z,58.20
2023-05-21T06:53:27.077Z,57.60
2023-05-21T06:55:54.245Z,58.00
2023-05-21T06:58:31.293Z,57.90
2023-05-21T07:00:59.165Z,58.10
2023-05-21T07:03:26.554Z,56.80
2023-05-21T07:05:54.056Z,57.00
2023-05-21T07:08:21.506Z,56.70
2023-05-21T07:10:49.748Z,56.10
2023-05-21T07:13:17.848Z,56.00
2023-05-21T07:15:45.098Z,57.30
2023-05-21T07:18:12.190Z,56.30
2023-05-21T07:20:39.661Z,56.50
2023-05-21T07:23:09.815Z,55.90
2023-05-21T07:25:36.937Z,55.10
2023-05-21T07:28:06.550Z,56.70
2023-05-21T07:30:33.788Z,55.30
2023-05-21T07:33:02.136Z,55.30
2023-05-21T07:35:29.206Z,55.50
2023-05-21T07:37:56.719Z,55.80
2023-05-21T07:40:24.393Z,55.80
2023-05-21T07:42:52.164Z,56.60
2023-05-21T07:45:20.840Z,55.20
2023-05-21T07:47:50.325Z,55.50
2023-05-21T07:50:17.443Z,55.40
2023-05-21T07:52:44.455Z,55.10
2023-05-21T07:55:11.484Z,55.70
2023-05-21T07:57:40.249Z,56.50
2023-05-21T08:00:16.068Z,56.20
2023-05-21T08:02:47.340Z,55.50
2023-05-21T08:05:16.484Z,56.30
2023-05-21T08:07:44.413Z,55.20
2023-05-21T08:10:11.495Z,54.70
2023-05-21T08:12:38.393Z,54.30
2023-05-21T08:15:07.221Z,54.30
2023-05-21T08:17:38.586Z,54.90
2023-05-21T08:20:06.347Z,54.80
2023-05-21T08:22:35.484Z,55.20
2023-05-21T08:25:02.809Z,54.90
2023-05-21T08:27:29.870Z,55.50
2023-05-21T08:29:57.911Z,54.80
2023-05-21T08:32:25.103Z,54.30
2023-05-21T08:34:53.826Z,54.30
2023-05-21T08:37:35.903Z,54.80
2023-05-21T08:40:12.351Z,53.60
2023-05-21T08:42:47.949Z,52.90
2023-05-21T08:45:31.988Z,53.70
2023-05-21T08:47:59.577Z,53.30
2023-05-21T08:50:32.481Z,52.30
2023-05-21T08:53:07.473Z,52.70
2023-05-21T08:55:42.809Z,51.90
2023-05-21T08:58:10.670Z,52.20
2023-05-21T09:00:37.965Z,54.10
2023-05-21T09:03:10.501Z,52.50
2023-05-21T09:05:43.093Z,51.20
2023-05-21T09:08:19.620Z,48.90
2023-05-21T09:11:05.780Z,49.80
2023-05-21T09:13:40.245Z,48.80
2023-05-21T09:16:13.555Z,48.50
2023-05-21T09:18:40.675Z,48.50
2023-05-21T09:21:29.937Z,48.80
2023-05-21T09:24:12.030Z,48.90
2023-05-21T09:26:43.369Z,48.40
2023-05-21T09:29:13.268Z,49.10
2023-05-21T09:31:46.872Z,48.20
2023-05-21T09:34:14.665Z,48.60
2023-05-21T09:36:44.008Z,49.00
2023-05-21T09:39:16.594Z,48.80
2023-05-21T09:41:44.829Z,48.00
2023-05-21T09:44:11.807Z,48.50
2023-05-21T09:46:41.353Z,48.50
2023-05-21T09:49:26.493Z,48.70
2023-05-21T09:51:58.077Z,47.00
2023-05-21T09:54:32.394Z,47.40
2023-05-21T09:57:02.731Z,46.00
2023-05-21T09:59:37.056Z,46.10
2023-05-21T10:02:14.258Z,45.70
2023-05-21T10:04:42.372Z,45.40
2023-05-21T10:07:09.449Z,45.30
2023-05-21T10:09:36.884Z,44.80
2023-05-21T10:12:04.627Z,43.30
2023-05-21T10:14:34.172Z,45.50
2023-05-21T10:17:01.423Z,44.60
2023-05-21T10:19:32.016Z,43.80
2023-05-21T10:22:01.461Z,43.40
2023-05-21T10:24:29.091Z,43.60
2023-05-21T10:26:56.329Z,43.30
2023-05-21T10:29:23.503Z,43.40
2023-05-21T10:31:53.072Z,42.60
2023-05-21T10:34:21.227Z,43.20
2023-05-21T10:36:50.477Z,44.00
2023-05-21T10:39:19.917Z,42.40
2023-05-21T10:42:12.848Z,41.20
2023-05-21T10:45:14.154Z,42.30
2023-05-21T10:47:54.468Z,42.10
2023-05-21T10:50:46.572Z,41.80
2023-05-21T10:53:43.950Z,41.80
2023-05-21T10:56:19.880Z,40.90
2023-05-21T10:59:10.166Z,41.10
2023-05-21T11:01:38.593Z,41.20
2023-05-21T11:04:08.421Z,41.10
2023-05-21T11:06:35.758Z,41.60
2023-05-21T11:09:12.944Z,40.70
2023-05-21T11:11:45.040Z,42.20
2023-05-21T11:14:57.038Z,40.70
2023-05-21T11:17:44.547Z,40.60
2023-05-21T11:20:16.865Z,41.20
2023-05-21T11:22:46.818Z,41.80
2023-05-21T11:25:15.530Z,42.20
2023-05-21T11:27:42.745Z,42.10
2023-05-21T11:30:15.872Z,42.90
2023-05-21T11:33:07.548Z,42.70
2023-05-21T11:35:56.243Z,42.50
2023-05-21T11:38:23.099Z,41.40
2023-05-21T11:40:56.543Z,41.60
2023-05-21T11:43:23.458Z,42.90
2023-05-21T11:45:52.857Z,42.00
2023-05-21T11:48:26.820Z,41.50
2023-05-21T11:50:54.487Z,43.00
2023-05-21T11:53:21.688Z,42.10
2023-05-21T11:55:48.990Z,42.00
2023-05-21T11:58:16.680Z,43.40
2023-05-21T12:00:43.660Z,43.10
2023-05-21T12:03:14.461Z,42.90
2023-05-21T12:05:52.375Z,42.00
2023-05-21T12:08:25.896Z,42.60
2023-05-21T12:11:00.003Z,41.40
2023-05-21T12:13:27.985Z,41.80
2023-05-21T12:15:54.944Z,43.40
2023-05-21T12:18:22.226Z,42.90
2023-05-21T12:20:52.002Z,41.60
2023-05-21T12:23:25.851Z,41.80
2023-05-21T12:25:53.916Z,42.90
2023-05-21T12:28:22.581Z,42.30
2023-05-21T12:30:49.876Z,41.60
2023-05-21T12:33:18.052Z,42.90
2023-05-21T12:35:50.256Z,43.20
2023-05-21T12:38:17.397Z,44.50
2023-05-21T12:40:45.877Z,44.40
2023-05-21T12:43:13.218Z,42.00
2023-05-21T12:45:40.634Z,43.00
2023-05-21T12:48:08.278Z,43.40
2023-05-21T12:50:40.330Z,42.40
2023-05-21T12:53:10.737Z,43.10
2023-05-21T12:55:37.702Z,43.70
2023-05-21T12:58:08.186Z,46.00
2023-05-21T13:00:35.754Z,44.90
2023-05-21T13:03:04.725Z,45.50
2023-05-21T13:05:31.960Z,44.80
2023-05-21T13:07:58.900Z,44.70
2023-05-21T13:10:25.940Z,45.60
2023-05-21T13:12:52.795Z,45.00
2023-05-21T13:15:20.571Z,44.80
2023-05-21T13:17:49.725Z,45.00
2023-05-21T13:20:26.284Z,45.30
2023-05-21T13:22:54.044Z,46.30
2023-05-21T13:25:24.807Z,45.20
2023-05-21T13:27:53.170Z,45.40
2023-05-21T13:30:20.999Z,45.30
2023-05-21T13:32:48.682Z,46.60
2023-05-21T13:35:16.923Z,46.90
2023-05-21T13:37:45.276Z,46.60
2023-05-21T13:40:15.259Z,46.30
2023-05-21T13:42:45.168Z,46.20
2023-05-21T13:45:15.110Z,46.00
2023-05-21T13:47:43.877Z,46.60
2023-05-21T13:50:11.214Z,46.10
2023-05-21T13:52:38.827Z,47.20
2023-05-21T13:55:06.509Z,47.20
2023-05-21T13:57:33.551Z,48.70
2023-05-21T14:00:00.993Z,46.90
2023-05-21T14:02:28.018Z,47.20
2023-05-21T14:04:55.150Z,46.20
2023-05-21T14:07:22.484Z,46.90
2023-05-21T14:09:50.012Z,46.70
2023-05-21T14:12:17.370Z,48.10
2023-05-21T14:14:44.473Z,47.60
2023-05-21T14:17:11.720Z,47.30
2023-05-21T14:19:38.706Z,47.20
2023-05-21T14:22:05.728Z,48.90
2023-05-21T14:24:32.860Z,47.40
2023-05-21T14:26:59.933Z,47.30
2023-05-21T14:29:26.863Z,47.80
2023-05-21T14:31:53.911Z,46.30
2023-05-21T14:34:21.005Z,45.90
2023-05-21T14:36:47.851Z,46.30
2023-05-21T14:39:14.733Z,46.40
2023-05-21T14:41:41.763Z,46.30
2023-05-21T14:44:08.651Z,47.70
2023-05-21T14:46:36.739Z,46.90
2023-05-21T14:49:03.996Z,47.40
2023-05-21T14:51:31.698Z,47.70
2023-05-21T14:53:59.217Z,47.70
2023-05-21T14:56:27.845Z,47.50
2023-05-21T14:58:55.312Z,47.50
2023-05-21T15:01:22.843Z,47.70
2023-05-21T15:03:50.038Z,47.20
2023-05-21T15:06:17.139Z,47.00
2023-05-21T15:08:43.979Z,48.70
2023-05-21T15:11:11.605Z,48.40
2023-05-21T15:13:39.107Z,47.50
2023-05-21T15:16:06.496Z,47.20
2023-05-21T15:18:33.899Z,48.20
2023-05-21T15:21:00.951Z,48.70
2023-05-21T15:23:28.328Z,48.10
2023-05-21T15:25:55.854Z,48.40
2023-05-21T15:28:23.096Z,48.00
2023-05-21T15:30:50.220Z,47.90
2023-05-21T15:33:17.202Z,47.30
2023-05-21T15:35:44.445Z,47.70
2023-05-21T15:38:11.744Z,47.90
2023-05-21T15:40:41.253Z,47.80
2023-05-21T15:43:08.300Z,48.40
2023-05-21T15:45:35.499Z,48.90
2023-05-21T15:48:02.688Z,49.00
2023-05-21T15:50:29.652Z,49.20
2023-05-21T15:52:56.677Z,49.10
2023-05-21T15:55:23.573Z,47.80
2023-05-21T15:57:50.807Z,47.80
2023-05-21T16:00:17.802Z,47.60
2023-05-21T16:02:44.877Z,48.70
2023-05-21T16:05:11.829Z,48.00
2023-05-21T16:07:38.719Z,48.00
2023-05-21T16:10:08.268Z,48.00
2023-05-21T16:12:35.118Z,48.60
2023-05-21T16:15:02.064Z,47.80
2023-05-21T16:17:28.992Z,47.50
2023-05-21T16:19:55.994Z,47.40
2023-05-21T16:22:23.917Z,47.80
2023-05-21T16:24:51.192Z,48.70
2023-05-21T16:27:18.131Z,48.50
2023-05-21T16:29:45.065Z,48.40
2023-05-21T16:32:13.979Z,47.90
2023-05-21T16:34:41.222Z,46.90
2023-05-21T16:37:09.754Z,48.40
2023-05-21T16:39:37.377Z,48.50
2023-05-21T16:42:04.544Z,48.60
2023-05-21T16:44:32.215Z,48.40
2023-05-21T16:47:00.385Z,49.10
2023-05-21T16:49:27.943Z,48.30
2023-05-21T16:51:54.964Z,48.70
2023-05-21T16:54:22.614Z,49.00
2023-05-21T16:56:49.592Z,47.80
2023-05-21T16:59:16.707Z,48.20
2023-05-21T17:01:43.811Z,48.00
2023-05-21T17:04:11.121Z,48.00
2023-05-21T17:06:38.267Z,48.10
2023-05-21T17:09:05.221Z,48.40
2023-05-21T17:11:32.164Z,48.20
2023-05-21T17:13:59.148Z,47.90
2023-05-21T17:16:26.354Z,47.90
2023-05-21T17:18:53.356Z,48.10
2023-05-21T17:21:20.471Z,48.10
2023-05-21T17:23:47.677Z,47.40
2023-05-21T17:26:14.541Z,47.50
2023-05-21T17:28:41.653Z,47.40
2023-05-21T17:31:09.527Z,47.60
2023-05-21T17:33:37.472Z,47.90
2023-05-21T17:36:04.568Z,48.30
2023-05-21T17:38:31.679Z,48.70
2023-05-21T17:40:59.355Z,48.20
2023-05-21T17:43:31.818Z,49.10
2023-05-21T17:45:58.933Z,49.10
2023-05-21T17:48:26.200Z,48.60
2023-05-21T17:50:53.233Z,48.90
2023-05-21T17:53:20.432Z,49.20
2023-05-21T17:55:47.354Z,49.70
2023-05-21T17:58:14.334Z,50.10
2023-05-21T18:00:41.489Z,50.00
2023-05-21T18:03:08.653Z,50.20
2023-05-21T18:05:36.377Z,50.50
2023-05-21T18:08:04.736Z,50.00
2023-05-21T18:10:31.852Z,50.30
2023-05-21T18:12:58.679Z,50.20
2023-05-21T18:15:25.666Z,50.70
2023-05-21T18:17:52.867Z,50.80
2023-05-21T18:20:19.786Z,50.80
2023-05-21T18:22:46.737Z,51.00
2023-05-21T18:25:13.593Z,51.50
2023-05-21T18:27:40.534Z,51.30
2023-05-21T18:30:08.485Z,51.80
2023-05-21T18:32:38.805Z,51.40
2023-05-21T18:35:08.062Z,52.20
2023-05-21T18:37:35.022Z,51.70
2023-05-21T18:40:02.041Z,51.80
2023-05-21T18:42:29.000Z,51.90
2023-05-21T18:44:56.112Z,52.20
2023-05-21T18:47:23.249Z,52.80
2023-05-21T18:49:50.172Z,52.70
2023-05-21T18:52:17.221Z,52.90
2023-05-21T18:54:44.062Z,52.70
2023-05-21T18:57:10.986Z,52.70
2023-05-21T18:59:38.921Z,52.80
2023-05-21T19:02:06.097Z,52.80
2023-05-21T19:04:33.095Z,52.80
2023-05-21T19:06:59.973Z,52.90
2023-05-21T19:09:26.847Z,52.90
2023-05-21T19:11:53.862Z,53.10
2023-05-21T19:14:21.237Z,53.10
2023-05-21T19:16:48.124Z,53.20
2023-05-21T19:19:15.088Z,53.20
2023-05-21T19:21:42.030Z,53.50
2023-05-21T19:24:08.994Z,54.40
2023-05-21T19:26:35.894Z,53.60
2023-05-21T19:29:02.936Z,53.70
2023-05-21T19:31:29.881Z,54.00
2023-05-21T19:33:56.853Z,54.00
2023-05-21T19:36:24.718Z,53.90
2023-05-21T19:38:51.649Z,54.00
2023-05-21T19:41:19.661Z,54.10
2023-05-21T19:43:46.649Z,54.40
2023-05-21T19:46:17.237Z,54.60
2023-05-21T19:48:46.134Z,55.00
2023-05-21T19:51:13.614Z,55.10
2023-05-21T19:53:40.871Z,55.40
2023-05-21T19:56:08.044Z,55.60
2023-05-21T19:58:35.167Z,55.70
2023-05-21T20:01:03.447Z,55.90
2023-05-21T20:03:35.674Z,56.10
2023-05-21T20:06:03.570Z,56.50
2023-05-21T20:08:30.735Z,56.60
2023-05-21T20:10:57.702Z,56.70
2023-05-21T20:13:24.814Z,56.90
2023-05-21T20:15:51.897Z,57.30
2023-05-21T20:18:21.452Z,57.30
2023-05-21T20:20:49.267Z,57.50
2023-05-21T20:23:16.247Z,57.50
2023-05-21T20:25:43.292Z,57.60
2023-05-21T20:28:10.496Z,57.90
2023-05-21T20:30:52.887Z,58.00
2023-05-21T20:33:20.688Z,58.00
2023-05-21T20:35:47.595Z,58.20
2023-05-21T20:38:15.954Z,58.30
2023-05-21T20:40:44.158Z,58.60
2023-05-21T20:43:14.930Z,59.10
2023-05-21T20:45:42.063Z,59.20
2023-05-21T20:48:09.835Z,59.10
2023-05-21T20:50:37.512Z,60.10
2023-05-21T20:53:04.766Z,59.50
2023-05-21T20:55:35.060Z,59.60
2023-05-21T20:58:03.183Z,59.70
2023-05-21T21:00:30.354Z,60.00
2023-05-21T21:03:00.959Z,60.00
2023-05-21T21:05:28.443Z,60.00
2023-05-21T21:07:56.058Z,60.10
2023-05-21T21:10:23.071Z,60.20
2023-05-21T21:12:50.091Z,60.30
2023-05-21T21:15:17.235Z,60.40
2023-05-21T21:17:44.263Z,60.60
2023-05-21T21:20:12.859Z,60.60
2023-05-21T21:22:40.182Z,60.60
2023-05-21T21:25:07.461Z,60.80
2023-05-21T21:27:34.782Z,60.80
2023-05-21T21:30:01.835Z,60.70
2023-05-21T21:32:29.001Z,60.80
2023-05-21T21:34:55.865Z,60.80
2023-05-21T21:37:22.778Z,60.90
2023-05-21T21:39:49.675Z,60.90
2023-05-21T21:42:16.722Z,61.00
2023-05-21T21:44:43.636Z,61.10
2023-05-21T21:47:10.766Z,61.10
2023-05-21T21:49:37.669Z,61.20
2023-05-21T21:52:04.899Z,61.20
2023-05-21T21:54:31.773Z,61.20
2023-05-21T21:56:58.646Z,61.40
2023-05-21T21:59:25.572Z,61.30
2023-05-21T22:01:52.706Z,61.30
2023-05-21T22:04:19.669Z,61.40
2023-05-21T22:06:46.793Z,61.40
2023-05-21T22:09:13.736Z,61.50
2023-05-21T22:11:40.698Z,61.60
2023-05-21T22:14:07.797Z,61.60
2023-05-21T22:16:34.689Z,61.80
2023-05-21T22:19:01.706Z,62.00
2023-05-21T22:21:29.440Z,62.10
2023-05-21T22:23:56.584Z,62.10
2023-05-21T22:26:23.818Z,62.30
2023-05-21T22:28:51.493Z,62.30
2023-05-21T22:31:18.717Z,62.40
2023-05-21T22:33:45.667Z,62.60
2023-05-21T22:36:12.585Z,62.70
2023-05-21T22:38:39.504Z,62.90
2023-05-21T22:41:06.629Z,62.80
2023-05-21T22:43:34.817Z,63.00
2023-05-21T22:46:02.021Z,63.10
2023-05-21T22:48:31.754Z,63.00
2023-05-21T22:50:58.787Z,63.00
2023-05-21T22:53:26.213Z,63.00
2023-05-21T22:55:53.309Z,63.10
2023-05-21T22:58:20.401Z,63.00
2023-05-21T23:00:48.122Z,63.10
2023-05-21T23:03:16.458Z,63.10
2023-05-21T23:05:43.538Z,63.70
2023-05-21T23:08:10.484Z,63.30
2023-05-21T23:10:37.640Z,63.40
2023-05-21T23:13:05.076Z,63.60
2023-05-21T23:15:32.097Z,63.80
2023-05-21T23:18:00.426Z,63.70
2023-05-21T23:20:27.866Z,63.70
2023-05-21T23:22:54.789Z,63.50
2023-05-21T23:25:21.740Z,63.50
2023-05-21T23:27:48.612Z,63.20
2023-05-21T23:30:15.734Z,63.50
2023-05-21T23:32:42.760Z,63.90
2023-05-21T23:35:10.001Z,64.60
2023-05-21T23:37:37.134Z,64.90
2023-05-21T23:40:04.285Z,65.20
2023-05-21T23:42:31.236Z,65.50
2023-05-21T23:44:58.196Z,65.60
2023-05-21T23:47:25.900Z,65.50
2023-05-21T23:49:53.180Z,65.50
2023-05-21T23:52:20.177Z,65.40
2023-05-21T23:54:47.123Z,65.50
2023-05-21T23:57:14.021Z,65.40
2023-05-21T23:59:41.041Z,65.60
